createdAt,value
2019-04-04T00:00:41.254Z,984.88
2019-04-04T00:01:41.263Z,984.86
2019-04-04T00:02:41.264Z,984.88
2019-04-04T00:03:41.253Z,984.86
2019-04-04T00:04:41.267Z,984.86
2019-04-04T00:05:41.263Z,984.94
2019-04-04T00:06:41.254Z,984.99
2019-04-04T00:07:41.266Z,984.98
2019-04-04T00:08:41.256Z,985.01
2019-04-04T00:09:41.253Z,985.02
2019-04-04T00:10:41.253Z,985.05
2019-04-04T00:11:41.263Z,985.03
2019-04-04T00:12:39.642Z,984.93
2019-04-04T00:13:41.984Z,984.99
2019-04-04T00:14:43.499Z,984.99
2019-04-04T00:15:41.255Z,984.97
2019-04-04T00:16:41.262Z,984.96
2019-04-04T00:17:41.252Z,984.84
2019-04-04T00:18:41.252Z,984.73
2019-04-04T00:19:41.262Z,984.68
2019-04-04T00:20:41.253Z,984.66
2019-04-04T00:21:41.251Z,984.65
2019-04-04T00:22:41.262Z,984.53
2019-04-04T00:23:39.378Z,984.53
2019-04-04T00:24:41.251Z,984.54
2019-04-04T00:25:41.253Z,984.49
2019-04-04T00:26:41.967Z,984.41
2019-04-04T00:27:42.043Z,984.35
2019-04-04T00:28:41.249Z,984.34
2019-04-04T00:29:41.252Z,984.31
2019-04-04T00:30:41.249Z,984.41
2019-04-04T00:31:41.251Z,984.45
2019-04-04T00:32:41.258Z,984.51
2019-04-04T00:33:41.249Z,984.65
2019-04-04T00:34:41.253Z,984.71
2019-04-04T00:35:40.750Z,984.76
2019-04-04T00:36:40.758Z,984.75
2019-04-04T00:37:41.113Z,984.76
2019-04-04T00:38:40.749Z,984.75
2019-04-04T00:39:40.737Z,984.69
2019-04-04T00:40:41.957Z,984.66
2019-04-04T00:41:40.755Z,984.68
2019-04-04T00:42:40.755Z,984.76
2019-04-04T00:43:40.749Z,984.76
2019-04-04T00:44:40.748Z,984.83
2019-04-04T00:45:40.751Z,984.88
2019-04-04T00:46:40.748Z,984.87
2019-04-04T00:47:40.753Z,984.88
2019-04-04T00:48:40.747Z,984.84
2019-04-04T00:49:40.747Z,984.82
2019-04-04T00:50:39.093Z,984.89
2019-04-04T00:51:40.737Z,984.88
2019-04-04T00:52:41.457Z,984.91
2019-04-04T00:53:42.718Z,984.90
2019-04-04T00:54:40.747Z,984.86
2019-04-04T00:55:40.747Z,984.81
2019-04-04T00:56:40.751Z,984.73
2019-04-04T00:57:40.749Z,984.68
2019-04-04T00:58:40.747Z,984.64
2019-04-04T00:59:40.753Z,984.60
2019-04-04T01:00:40.744Z,984.52
2019-04-04T01:01:40.747Z,984.45
2019-04-04T01:02:40.744Z,984.47
2019-04-04T01:03:40.747Z,984.46
2019-04-04T01:04:40.746Z,984.48
2019-04-04T01:05:40.754Z,984.51
2019-04-04T01:06:40.744Z,984.55
2019-04-04T01:07:40.748Z,984.58
2019-04-04T01:08:40.746Z,984.55
2019-04-04T01:09:40.746Z,984.55
2019-04-04T01:10:40.746Z,984.48
2019-04-04T01:11:40.750Z,984.52
2019-04-04T01:12:40.745Z,984.57
2019-04-04T01:13:40.751Z,984.61
2019-04-04T01:14:40.743Z,984.67
2019-04-04T01:15:40.746Z,984.62
2019-04-04T01:16:40.759Z,984.58
2019-04-04T01:17:38.801Z,984.52
2019-04-04T01:18:40.756Z,984.40
2019-04-04T01:19:40.743Z,984.29
2019-04-04T01:20:40.744Z,984.32
2019-04-04T01:21:40.747Z,984.35
2019-04-04T01:22:39.744Z,984.36
2019-04-04T01:23:40.244Z,984.34
2019-04-04T01:24:40.251Z,984.46
2019-04-04T01:25:40.241Z,984.47
2019-04-04T01:26:40.233Z,984.48
2019-04-04T01:27:40.243Z,984.50
2019-04-04T01:28:40.253Z,984.54
2019-04-04T01:29:40.928Z,984.58
2019-04-04T01:30:41.701Z,984.59
2019-04-04T01:31:40.231Z,984.59
2019-04-04T01:32:40.243Z,984.61
2019-04-04T01:33:40.241Z,984.59
2019-04-04T01:34:40.249Z,984.62
2019-04-04T01:35:40.246Z,984.62
2019-04-04T01:36:40.245Z,984.65
2019-04-04T01:37:40.243Z,984.68
2019-04-04T01:38:40.241Z,984.69
2019-04-04T01:39:40.242Z,984.68
2019-04-04T01:40:40.259Z,984.64
2019-04-04T01:41:40.243Z,984.61
2019-04-04T01:42:40.244Z,984.60
2019-04-04T01:43:40.766Z,984.57
2019-04-04T01:44:42.231Z,984.62
2019-04-04T01:45:40.246Z,984.55
2019-04-04T01:46:40.265Z,984.53
2019-04-04T01:47:40.241Z,984.49
2019-04-04T01:48:40.241Z,984.45
2019-04-04T01:49:38.460Z,984.41
2019-04-04T01:50:40.242Z,984.40
2019-04-04T01:51:40.239Z,984.41
2019-04-04T01:52:47.267Z,984.41
2019-04-04T01:53:40.242Z,984.38
2019-04-04T01:54:40.241Z,984.38
2019-04-04T01:55:40.239Z,984.27
2019-04-04T01:56:40.239Z,984.24
2019-04-04T01:57:40.247Z,984.24
2019-04-04T01:58:41.845Z,984.22
2019-04-04T01:59:40.241Z,984.15
2019-04-04T02:00:38.348Z,984.11
2019-04-04T02:01:40.242Z,984.08
2019-04-04T02:02:40.240Z,984.03
2019-04-04T02:03:40.247Z,984.03
2019-04-04T02:04:40.228Z,984.02
2019-04-04T02:05:40.228Z,984.01
2019-04-04T02:06:40.237Z,983.99
2019-04-04T02:07:40.239Z,983.98
2019-04-04T02:08:40.252Z,983.95
2019-04-04T02:09:40.227Z,983.92
2019-04-04T02:10:39.738Z,983.93
2019-04-04T02:11:38.223Z,983.98
2019-04-04T02:12:39.739Z,984.00
2019-04-04T02:13:40.901Z,984.01
2019-04-04T02:14:42.804Z,984.08
2019-04-04T02:15:39.737Z,984.10
2019-04-04T02:16:39.736Z,984.15
2019-04-04T02:17:39.739Z,984.10
2019-04-04T02:18:39.740Z,984.09
2019-04-04T02:19:39.739Z,984.00
2019-04-04T02:20:39.744Z,983.95
2019-04-04T02:21:39.735Z,983.94
2019-04-04T02:22:39.739Z,983.97
2019-04-04T02:23:39.744Z,983.99
2019-04-04T02:24:39.738Z,984.03
2019-04-04T02:25:39.743Z,984.02
2019-04-04T02:26:39.735Z,983.99
2019-04-04T02:27:38.437Z,983.97
2019-04-04T02:28:40.008Z,984.00
2019-04-04T02:29:39.925Z,983.98
2019-04-04T02:30:39.747Z,983.92
2019-04-04T02:31:39.746Z,983.95
2019-04-04T02:32:39.729Z,983.99
2019-04-04T02:33:39.728Z,984.02
2019-04-04T02:34:39.735Z,984.01
2019-04-04T02:35:42.877Z,983.98
2019-04-04T02:36:39.839Z,983.90
2019-04-04T02:37:39.748Z,983.85
2019-04-04T02:38:39.746Z,983.81
2019-04-04T02:39:39.735Z,983.78
2019-04-04T02:40:42.006Z,983.76
2019-04-04T02:41:39.737Z,983.73
2019-04-04T02:42:39.735Z,983.62
2019-04-04T02:43:37.885Z,983.59
2019-04-04T02:44:39.742Z,983.46
2019-04-04T02:45:39.733Z,983.48
2019-04-04T02:46:44.092Z,983.63
2019-04-04T02:47:40.737Z,983.68
2019-04-04T02:48:39.736Z,983.74
2019-04-04T02:49:39.738Z,983.77
2019-04-04T02:50:39.746Z,983.78
2019-04-04T02:51:41.177Z,983.78
2019-04-04T02:52:39.736Z,983.78
2019-04-04T02:53:39.734Z,983.84
2019-04-04T02:54:37.762Z,983.77
2019-04-04T02:55:39.751Z,983.63
2019-04-04T02:56:39.247Z,983.55
2019-04-04T02:57:42.217Z,983.57
2019-04-04T02:58:39.233Z,983.56
2019-04-04T02:59:39.234Z,983.65
2019-04-04T03:00:39.244Z,983.67
2019-04-04T03:01:39.240Z,983.75
2019-04-04T03:02:39.245Z,983.76
2019-04-04T03:03:42.124Z,983.86
2019-04-04T03:04:39.231Z,983.76
2019-04-04T03:05:39.232Z,983.64
2019-04-04T03:06:39.235Z,983.60
2019-04-04T03:07:39.240Z,983.62
2019-04-04T03:08:39.246Z,983.69
2019-04-04T03:09:42.172Z,983.72
2019-04-04T03:10:38.238Z,983.78
2019-04-04T03:11:39.257Z,983.82
2019-04-04T03:12:39.219Z,983.93
2019-04-04T03:13:39.232Z,984.02
2019-04-04T03:14:39.231Z,984.06
2019-04-04T03:15:41.250Z,984.21
2019-04-04T03:16:39.237Z,984.28
2019-04-04T03:17:39.229Z,984.34
2019-04-04T03:18:39.229Z,984.40
2019-04-04T03:19:40.728Z,984.48
2019-04-04T03:20:39.232Z,984.56
2019-04-04T03:21:37.499Z,984.60
2019-04-04T03:22:39.237Z,984.60
2019-04-04T03:23:39.245Z,984.54
2019-04-04T03:24:44.488Z,984.52
2019-04-04T03:25:40.220Z,984.41
2019-04-04T03:26:39.240Z,984.29
2019-04-04T03:27:39.231Z,984.22
2019-04-04T03:28:39.229Z,984.14
2019-04-04T03:29:39.221Z,984.10
2019-04-04T03:30:39.232Z,983.99
2019-04-04T03:31:39.368Z,983.84
2019-04-04T03:32:37.399Z,983.73
2019-04-04T03:33:39.230Z,983.63
2019-04-04T03:34:39.230Z,983.55
2019-04-04T03:35:39.227Z,983.50
2019-04-04T03:36:39.227Z,983.60
2019-04-04T03:37:41.131Z,983.61
2019-04-04T03:38:39.237Z,983.71
2019-04-04T03:39:39.231Z,983.75
2019-04-04T03:40:41.827Z,983.78
2019-04-04T03:41:39.229Z,983.83
2019-04-04T03:42:43.859Z,983.83
2019-04-04T03:43:38.273Z,983.81
2019-04-04T03:44:38.227Z,983.77
2019-04-04T03:45:38.728Z,983.81
2019-04-04T03:46:39.192Z,983.83
2019-04-04T03:47:43.435Z,983.90
2019-04-04T03:48:39.726Z,983.94
2019-04-04T03:49:38.736Z,984.07
2019-04-04T03:50:38.736Z,984.05
2019-04-04T03:51:38.729Z,984.06
2019-04-04T03:52:43.375Z,984.01
2019-04-04T03:53:39.727Z,984.01
2019-04-04T03:54:38.737Z,984.04
2019-04-04T03:55:38.735Z,984.02
2019-04-04T03:56:39.531Z,984.07
2019-04-04T03:57:38.731Z,984.04
2019-04-04T03:58:38.738Z,983.97
2019-04-04T03:59:38.727Z,983.94
2019-04-04T04:00:40.297Z,983.95
2019-04-04T04:01:38.716Z,983.96
2019-04-04T04:02:38.733Z,983.93
2019-04-04T04:03:38.726Z,983.92
2019-04-04T04:04:38.728Z,983.78
2019-04-04T04:05:40.705Z,983.73
2019-04-04T04:06:41.316Z,983.68
2019-04-04T04:07:38.732Z,983.60
2019-04-04T04:08:38.736Z,983.51
2019-04-04T04:09:38.725Z,983.58
2019-04-04T04:10:38.728Z,983.65
2019-04-04T04:11:38.733Z,983.85
2019-04-04T04:12:42.677Z,983.96
2019-04-04T04:13:38.734Z,984.11
2019-04-04T04:14:38.726Z,984.08
2019-04-04T04:15:38.722Z,984.09
2019-04-04T04:16:38.727Z,984.02
2019-04-04T04:17:38.724Z,983.94
2019-04-04T04:18:38.733Z,983.90
2019-04-04T04:19:38.723Z,983.80
2019-04-04T04:20:38.728Z,983.68
2019-04-04T04:21:36.841Z,983.54
2019-04-04T04:22:38.725Z,983.50
2019-04-04T04:23:38.734Z,983.47
2019-04-04T04:24:38.745Z,983.54
2019-04-04T04:25:38.846Z,983.54
2019-04-04T04:26:41.950Z,983.64
2019-04-04T04:27:38.723Z,983.68
2019-04-04T04:28:38.728Z,983.73
2019-04-04T04:29:38.710Z,983.69
2019-04-04T04:30:40.467Z,983.59
2019-04-04T04:31:38.724Z,983.52
2019-04-04T04:32:38.738Z,983.52
2019-04-04T04:33:38.226Z,983.59
2019-04-04T04:34:38.226Z,983.63
2019-04-04T04:35:42.084Z,983.66
2019-04-04T04:36:38.223Z,983.60
2019-04-04T04:37:38.231Z,983.55
2019-04-04T04:38:38.257Z,983.49
2019-04-04T04:39:41.235Z,983.45
2019-04-04T04:40:38.218Z,983.40
2019-04-04T04:41:38.210Z,983.40
2019-04-04T04:42:36.626Z,983.31
2019-04-04T04:43:38.256Z,983.32
2019-04-04T04:44:38.973Z,983.32
2019-04-04T04:45:39.252Z,983.37
2019-04-04T04:46:38.272Z,983.35
2019-04-04T04:47:38.230Z,983.40
2019-04-04T04:48:38.218Z,983.35
2019-04-04T04:49:38.219Z,983.34
2019-04-04T04:50:40.061Z,983.33
2019-04-04T04:51:38.217Z,983.30
2019-04-04T04:52:38.228Z,983.32
2019-04-04T04:53:36.548Z,983.38
2019-04-04T04:54:38.228Z,983.34
2019-04-04T04:55:38.218Z,983.30
2019-04-04T04:56:38.235Z,983.41
2019-04-04T04:57:38.425Z,983.42
2019-04-04T04:58:38.223Z,983.44
2019-04-04T04:59:38.229Z,983.46
2019-04-04T05:00:38.216Z,983.44
2019-04-04T05:01:40.535Z,983.42
2019-04-04T05:02:38.217Z,983.49
2019-04-04T05:03:38.219Z,983.49
2019-04-04T05:04:36.412Z,983.55
2019-04-04T05:05:38.205Z,983.53
2019-04-04T05:06:38.215Z,983.52
2019-04-04T05:07:38.627Z,983.48
2019-04-04T05:08:39.003Z,983.41
2019-04-04T05:09:37.358Z,983.29
2019-04-04T05:10:38.217Z,983.23
2019-04-04T05:11:38.224Z,983.21
2019-04-04T05:12:38.239Z,983.26
2019-04-04T05:13:38.280Z,983.29
2019-04-04T05:14:38.233Z,983.38
2019-04-04T05:15:38.219Z,983.45
2019-04-04T05:16:38.635Z,983.47
2019-04-04T05:17:39.968Z,983.50
2019-04-04T05:18:38.217Z,983.49
2019-04-04T05:19:38.222Z,983.45
2019-04-04T05:20:36.220Z,983.47
2019-04-04T05:21:37.716Z,983.44
2019-04-04T05:22:39.661Z,983.46
2019-04-04T05:23:37.715Z,983.52
2019-04-04T05:24:37.724Z,983.58
2019-04-04T05:25:51.762Z,983.66
2019-04-04T05:26:38.975Z,983.71
2019-04-04T05:27:37.901Z,983.73
2019-04-04T05:28:37.725Z,983.81
2019-04-04T05:29:37.730Z,983.82
2019-04-04T05:30:37.731Z,983.86
2019-04-04T05:31:37.713Z,983.77
2019-04-04T05:32:37.730Z,983.72
2019-04-04T05:33:37.711Z,983.59
2019-04-04T05:34:37.734Z,983.60
2019-04-04T05:35:37.932Z,983.58
2019-04-04T05:36:37.715Z,983.58
2019-04-04T05:37:38.370Z,983.57
2019-04-04T05:38:37.715Z,983.58
2019-04-04T05:39:37.719Z,983.59
2019-04-04T05:40:37.731Z,983.67
2019-04-04T05:41:37.418Z,983.73
2019-04-04T05:42:37.715Z,983.78
2019-04-04T05:43:38.144Z,983.82
2019-04-04T05:44:41.399Z,983.78
2019-04-04T05:45:37.725Z,983.84
2019-04-04T05:46:37.714Z,983.83
2019-04-04T05:47:37.714Z,983.85
2019-04-04T05:48:37.716Z,983.81
2019-04-04T05:49:38.180Z,983.79
2019-04-04T05:50:37.712Z,983.75
2019-04-04T05:51:37.709Z,983.74
2019-04-04T05:52:37.752Z,983.69
2019-04-04T05:53:37.752Z,983.68
2019-04-04T05:54:39.171Z,983.77
2019-04-04T05:55:37.709Z,983.86
2019-04-04T05:56:37.722Z,983.96
2019-04-04T05:57:37.700Z,983.99
2019-04-04T05:58:37.733Z,983.93
2019-04-04T05:59:37.711Z,983.92
2019-04-04T06:00:37.744Z,983.82
2019-04-04T06:01:37.732Z,983.82
2019-04-04T06:02:37.758Z,983.84
2019-04-04T06:03:37.712Z,983.84
2019-04-04T06:04:37.718Z,983.83
2019-04-04T06:05:37.725Z,983.84
2019-04-04T06:06:37.711Z,983.86
2019-04-04T06:07:36.435Z,983.88
2019-04-04T06:08:42.451Z,983.92
2019-04-04T06:09:38.200Z,983.91
2019-04-04T06:10:37.217Z,983.90
2019-04-04T06:11:37.220Z,983.90
2019-04-04T06:12:37.459Z,983.90
2019-04-04T06:13:37.209Z,983.93
2019-04-04T06:14:37.209Z,983.90
2019-04-04T06:15:37.215Z,983.75
2019-04-04T06:16:37.223Z,983.72
2019-04-04T06:17:39.285Z,983.67
2019-04-04T06:18:37.208Z,983.71
2019-04-04T06:19:37.208Z,983.73
2019-04-04T06:20:37.218Z,983.76
2019-04-04T06:21:37.211Z,983.87
2019-04-04T06:22:37.209Z,983.85
2019-04-04T06:23:37.208Z,983.83
2019-04-04T06:24:37.208Z,983.86
2019-04-04T06:25:37.219Z,983.86
2019-04-04T06:26:38.191Z,983.88
2019-04-04T06:27:39.886Z,983.89
2019-04-04T06:28:37.196Z,983.91
2019-04-04T06:29:37.220Z,983.98
2019-04-04T06:30:43.027Z,984.02
2019-04-04T06:31:38.217Z,984.04
2019-04-04T06:32:38.903Z,984.11
2019-04-04T06:33:37.222Z,984.17
2019-04-04T06:34:37.256Z,984.20
2019-04-04T06:35:39.617Z,984.26
2019-04-04T06:36:37.225Z,984.32
2019-04-04T06:37:38.823Z,984.32
2019-04-04T06:38:35.382Z,984.37
2019-04-04T06:39:37.205Z,984.34
2019-04-04T06:40:37.205Z,984.28
2019-04-04T06:41:37.213Z,984.31
2019-04-04T06:42:37.305Z,984.35
2019-04-04T06:43:37.208Z,984.41
2019-04-04T06:44:37.205Z,984.40
2019-04-04T06:45:37.207Z,984.44
2019-04-04T06:46:37.205Z,984.44
2019-04-04T06:47:37.211Z,984.46
2019-04-04T06:48:37.202Z,984.49
2019-04-04T06:49:37.202Z,984.47
2019-04-04T06:50:39.970Z,984.49
2019-04-04T06:51:38.223Z,984.48
2019-04-04T06:52:37.206Z,984.49
2019-04-04T06:53:37.205Z,984.46
2019-04-04T06:54:36.217Z,984.49
2019-04-04T06:55:39.891Z,984.52
2019-04-04T06:56:36.712Z,984.50
2019-04-04T06:57:37.511Z,984.56
2019-04-04T06:58:39.972Z,984.55
2019-04-04T06:59:37.484Z,984.52
2019-04-04T07:00:36.702Z,984.55
2019-04-04T07:01:36.710Z,984.52
2019-04-04T07:02:36.703Z,984.53
2019-04-04T07:03:36.704Z,984.53
2019-04-04T07:04:36.103Z,984.56
2019-04-04T07:05:38.806Z,984.57
2019-04-04T07:06:36.702Z,984.51
2019-04-04T07:07:36.709Z,984.49
2019-04-04T07:08:36.699Z,984.51
2019-04-04T07:09:37.238Z,984.48
2019-04-04T07:10:36.693Z,984.52
2019-04-04T07:11:36.713Z,984.53
2019-04-04T07:12:38.022Z,984.52
2019-04-04T07:13:42.214Z,984.49
2019-04-04T07:14:45.501Z,984.54
2019-04-04T07:15:46.714Z,984.55
2019-04-04T07:16:37.704Z,984.50
2019-04-04T07:17:40.026Z,984.45
2019-04-04T07:18:36.701Z,984.50
2019-04-04T07:19:36.698Z,984.47
2019-04-04T07:20:36.705Z,984.49
2019-04-04T07:21:36.711Z,984.46
2019-04-04T07:22:36.706Z,984.47
2019-04-04T07:23:36.700Z,984.50
2019-04-04T07:24:36.704Z,984.42
2019-04-04T07:25:38.085Z,984.40
2019-04-04T07:26:36.714Z,984.37
2019-04-04T07:27:36.688Z,984.42
2019-04-04T07:28:36.699Z,984.42
2019-04-04T07:29:36.702Z,984.40
2019-04-04T07:30:36.715Z,984.39
2019-04-04T07:31:38.279Z,984.42
2019-04-04T07:32:36.705Z,984.39
2019-04-04T07:33:36.698Z,984.35
2019-04-04T07:34:36.700Z,984.45
2019-04-04T07:35:34.775Z,984.50
2019-04-04T07:36:36.699Z,984.50
2019-04-04T07:37:36.716Z,984.56
2019-04-04T07:38:36.698Z,984.56
2019-04-04T07:39:36.698Z,984.53
2019-04-04T07:40:37.182Z,984.56
2019-04-04T07:41:39.957Z,984.49
2019-04-04T07:42:36.209Z,984.51
2019-04-04T07:43:39.215Z,984.50
2019-04-04T07:44:36.199Z,984.48
2019-04-04T07:45:36.200Z,984.54
2019-04-04T07:46:36.196Z,984.53
2019-04-04T07:47:36.217Z,984.54
2019-04-04T07:48:36.204Z,984.51
2019-04-04T07:49:36.199Z,984.51
2019-04-04T07:50:36.201Z,984.50
2019-04-04T07:51:36.196Z,984.49
2019-04-04T07:52:36.210Z,984.49
2019-04-04T07:53:36.989Z,984.45
2019-04-04T07:54:38.523Z,984.50
2019-04-04T07:55:36.262Z,984.49
2019-04-04T07:56:36.206Z,984.50
2019-04-04T07:57:36.197Z,984.52
2019-04-04T07:58:36.207Z,984.52
2019-04-04T07:59:36.196Z,984.57
2019-04-04T08:00:36.194Z,984.62
2019-04-04T08:01:34.490Z,984.64
2019-04-04T08:02:36.196Z,984.69
2019-04-04T08:03:36.220Z,984.70
2019-04-04T08:04:36.196Z,984.66
2019-04-04T08:05:36.195Z,984.62
2019-04-04T08:06:36.216Z,984.60
2019-04-04T08:07:36.197Z,984.60
2019-04-04T08:08:36.204Z,984.60
2019-04-04T08:09:36.196Z,984.64
2019-04-04T08:10:36.199Z,984.69
2019-04-04T08:11:36.183Z,984.70
2019-04-04T08:12:36.196Z,984.67
2019-04-04T08:13:36.193Z,984.64
2019-04-04T08:14:36.203Z,984.68
2019-04-04T08:15:36.200Z,984.66
2019-04-04T08:16:36.195Z,984.69
2019-04-04T08:17:36.194Z,984.69
2019-04-04T08:18:36.199Z,984.71
2019-04-04T08:19:36.207Z,984.65
2019-04-04T08:20:36.195Z,984.65
2019-04-04T08:21:36.235Z,984.66
2019-04-04T08:22:39.402Z,984.64
2019-04-04T08:23:36.193Z,984.70
2019-04-04T08:24:36.211Z,984.68
2019-04-04T08:25:36.203Z,984.70
2019-04-04T08:26:36.192Z,984.66
2019-04-04T08:27:36.194Z,984.68
2019-04-04T08:28:36.196Z,984.70
2019-04-04T08:29:35.693Z,984.70
2019-04-04T08:30:35.704Z,984.72
2019-04-04T08:31:35.682Z,984.72
2019-04-04T08:32:34.157Z,984.78
2019-04-04T08:33:35.692Z,984.75
2019-04-04T08:34:36.509Z,984.76
2019-04-04T08:35:35.718Z,984.80
2019-04-04T08:36:36.055Z,984.71
2019-04-04T08:37:35.691Z,984.76
2019-04-04T08:38:35.683Z,984.79
2019-04-04T08:39:35.694Z,984.73
2019-04-04T08:40:35.693Z,984.69
2019-04-04T08:41:35.701Z,984.72
2019-04-04T08:42:35.705Z,984.73
2019-04-04T08:43:35.706Z,984.68
2019-04-04T08:44:35.709Z,984.75
2019-04-04T08:45:35.690Z,984.74
2019-04-04T08:46:35.691Z,984.71
2019-04-04T08:47:35.693Z,984.75
2019-04-04T08:48:35.694Z,984.78
2019-04-04T08:49:35.698Z,984.78
2019-04-04T08:50:35.691Z,984.81
2019-04-04T08:51:35.694Z,984.82
2019-04-04T08:52:35.694Z,984.84
2019-04-04T08:53:40.268Z,984.82
2019-04-04T08:54:35.702Z,984.85
2019-04-04T08:55:35.688Z,984.91
2019-04-04T08:56:35.688Z,984.94
2019-04-04T08:57:35.688Z,984.96
2019-04-04T08:58:33.887Z,984.93
2019-04-04T08:59:35.734Z,984.97
2019-04-04T09:00:35.717Z,984.99
2019-04-04T09:01:35.748Z,985.04
2019-04-04T09:02:35.690Z,985.02
2019-04-04T09:03:35.697Z,985.00
2019-04-04T09:04:35.703Z,985.01
2019-04-04T09:05:35.693Z,984.97
2019-04-04T09:06:35.701Z,984.94
2019-04-04T09:07:35.711Z,984.93
2019-04-04T09:08:35.690Z,984.95
2019-04-04T09:09:35.866Z,985.04
2019-04-04T09:10:35.689Z,985.06
2019-04-04T09:11:35.704Z,985.04
2019-04-04T09:12:35.695Z,985.02
2019-04-04T09:13:35.715Z,985.03
2019-04-04T09:14:35.692Z,985.09
2019-04-04T09:15:35.676Z,985.09
2019-04-04T09:16:35.199Z,985.05
2019-04-04T09:17:35.186Z,985.05
2019-04-04T09:18:35.186Z,985.06
2019-04-04T09:19:35.199Z,985.02
2019-04-04T09:20:35.193Z,984.99
2019-04-04T09:21:35.186Z,984.98
2019-04-04T09:22:35.178Z,984.98
2019-04-04T09:23:35.188Z,984.98
2019-04-04T09:24:33.635Z,984.93
2019-04-04T09:25:35.188Z,984.93
2019-04-04T09:26:35.189Z,984.93
2019-04-04T09:27:35.185Z,984.98
2019-04-04T09:28:35.200Z,985.00
2019-04-04T09:29:34.198Z,984.99
2019-04-04T09:30:35.185Z,984.98
2019-04-04T09:31:35.198Z,984.94
2019-04-04T09:32:35.188Z,984.96
2019-04-04T09:33:35.193Z,984.93
2019-04-04T09:34:35.188Z,984.93
2019-04-04T09:35:35.175Z,984.97
2019-04-04T09:36:35.185Z,984.96
2019-04-04T09:37:35.196Z,984.95
2019-04-04T09:38:35.194Z,985.00
2019-04-04T09:39:35.460Z,985.04
2019-04-04T09:40:35.214Z,985.00
2019-04-04T09:41:35.253Z,984.95
2019-04-04T09:42:35.202Z,984.93
2019-04-04T09:43:35.196Z,984.95
2019-04-04T09:44:35.206Z,984.90
2019-04-04T09:45:35.187Z,984.88
2019-04-04T09:46:35.188Z,984.87
2019-04-04T09:47:35.189Z,984.88
2019-04-04T09:48:35.218Z,984.91
2019-04-04T09:49:35.184Z,984.90
2019-04-04T09:50:35.190Z,984.85
2019-04-04T09:51:35.186Z,984.88
2019-04-04T09:52:35.188Z,984.82
2019-04-04T09:53:35.195Z,984.80
2019-04-04T09:54:35.184Z,984.82
2019-04-04T09:55:33.311Z,984.86
2019-04-04T09:56:35.205Z,984.86
2019-04-04T09:57:35.199Z,984.88
2019-04-04T09:58:35.184Z,984.93
2019-04-04T09:59:35.183Z,984.96
2019-04-04T10:00:35.196Z,984.96
2019-04-04T10:01:35.186Z,984.95
2019-04-04T10:02:35.172Z,984.97
2019-04-04T10:03:34.684Z,984.93
2019-04-04T10:04:34.690Z,984.93
2019-04-04T10:05:34.705Z,984.95
2019-04-04T10:06:34.683Z,984.94
2019-04-04T10:07:34.682Z,984.96
2019-04-04T10:08:34.681Z,984.99
2019-04-04T10:09:34.683Z,984.98
2019-04-04T10:10:34.683Z,984.99
2019-04-04T10:11:34.688Z,985.06
2019-04-04T10:12:34.684Z,985.10
2019-04-04T10:13:34.690Z,985.15
2019-04-04T10:14:34.681Z,985.14
2019-04-04T10:15:34.758Z,985.13
2019-04-04T10:16:34.693Z,985.17
2019-04-04T10:17:34.685Z,985.16
2019-04-04T10:18:34.683Z,985.11
2019-04-04T10:19:34.723Z,985.13
2019-04-04T10:20:34.693Z,985.10
2019-04-04T10:21:33.002Z,985.05
2019-04-04T10:22:34.733Z,985.08
2019-04-04T10:23:34.688Z,985.05
2019-04-04T10:24:34.689Z,985.05
2019-04-04T10:25:34.683Z,985.05
2019-04-04T10:26:34.692Z,985.07
2019-04-04T10:27:34.692Z,985.04
2019-04-04T10:28:34.711Z,985.01
2019-04-04T10:29:34.692Z,984.98
2019-04-04T10:30:34.685Z,984.99
2019-04-04T10:31:34.686Z,985.05
2019-04-04T10:32:34.679Z,985.07
2019-04-04T10:33:34.680Z,985.12
2019-04-04T10:34:34.681Z,985.12
2019-04-04T10:35:34.681Z,985.11
2019-04-04T10:36:34.694Z,985.16
2019-04-04T10:37:34.691Z,985.13
2019-04-04T10:38:34.682Z,985.10
2019-04-04T10:39:34.680Z,985.10
2019-04-04T10:40:34.678Z,985.10
2019-04-04T10:41:34.711Z,985.08
2019-04-04T10:42:34.704Z,985.06
2019-04-04T10:43:34.697Z,985.09
2019-04-04T10:44:37.070Z,985.06
2019-04-04T10:45:34.678Z,985.08
2019-04-04T10:46:34.694Z,985.06
2019-04-04T10:47:32.713Z,985.04
2019-04-04T10:48:33.701Z,984.98
2019-04-04T10:49:34.667Z,984.93
2019-04-04T10:50:34.185Z,984.95
2019-04-04T10:51:34.190Z,984.93
2019-04-04T10:52:32.655Z,984.93
2019-04-04T10:54:04.502Z,984.89
2019-04-04T10:55:06.286Z,984.90
2019-04-04T10:56:06.284Z,984.89
2019-04-04T10:57:06.295Z,984.87
2019-04-04T10:58:06.276Z,984.85
2019-04-04T10:59:06.276Z,984.80
2019-04-04T11:00:06.285Z,984.84
2019-04-04T11:01:06.263Z,984.80
2019-04-04T11:02:06.274Z,984.76
2019-04-04T11:03:04.424Z,984.77
2019-04-04T11:04:06.330Z,984.74
2019-04-04T11:05:06.326Z,984.80
2019-04-04T11:06:06.274Z,984.82
2019-04-04T11:07:06.279Z,984.84
2019-04-04T11:08:05.300Z,984.89
2019-04-04T11:09:06.289Z,984.91
2019-04-04T11:10:06.283Z,984.95
2019-04-04T11:11:06.277Z,984.90
2019-04-04T11:12:06.317Z,984.89
2019-04-04T11:13:06.275Z,984.94
2019-04-04T11:14:06.262Z,984.95
2019-04-04T11:15:05.773Z,984.99
2019-04-04T11:16:05.778Z,985.00
2019-04-04T11:17:05.788Z,984.97
2019-04-04T11:18:05.804Z,985.03
2019-04-04T11:19:05.828Z,985.03
2019-04-04T11:20:05.774Z,985.05
2019-04-04T11:21:05.773Z,985.04
2019-04-04T11:22:05.774Z,985.05
2019-04-04T11:23:05.779Z,985.11
2019-04-04T11:24:05.775Z,985.08
2019-04-04T11:25:05.777Z,985.13
2019-04-04T11:26:05.790Z,985.16
2019-04-04T11:27:06.273Z,985.16
2019-04-04T11:28:05.790Z,985.20
2019-04-04T11:29:05.763Z,985.21
2019-04-04T11:30:05.780Z,985.19
2019-04-04T11:31:05.775Z,985.17
2019-04-04T11:32:05.771Z,985.10
2019-04-04T11:33:05.777Z,985.05
2019-04-04T11:34:04.086Z,985.02
2019-04-04T11:35:05.779Z,985.02
2019-04-04T11:36:05.785Z,984.98
2019-04-04T11:37:05.792Z,985.02
2019-04-04T11:38:05.774Z,985.04
2019-04-04T11:39:05.773Z,985.12
2019-04-04T11:40:05.770Z,985.15
2019-04-04T11:41:05.765Z,985.22
2019-04-04T11:42:05.829Z,985.25
2019-04-04T11:43:05.771Z,985.26
2019-04-04T11:44:05.778Z,985.31
2019-04-04T11:45:05.802Z,985.25
2019-04-04T11:46:05.814Z,985.31
2019-04-04T11:47:05.768Z,985.34
2019-04-04T11:48:05.779Z,985.36
2019-04-04T11:49:05.773Z,985.38
2019-04-04T11:50:05.770Z,985.37
2019-04-04T11:51:05.771Z,985.41
2019-04-04T11:52:05.768Z,985.35
2019-04-04T11:53:05.779Z,985.41
2019-04-04T11:54:05.788Z,985.44
2019-04-04T11:55:05.858Z,985.51
2019-04-04T11:56:05.772Z,985.44
2019-04-04T11:57:05.770Z,985.51
2019-04-04T11:58:05.780Z,985.51
2019-04-04T11:59:08.055Z,985.56
2019-04-04T12:00:03.778Z,985.59
2019-04-04T12:01:05.280Z,985.59
2019-04-04T12:02:05.279Z,985.65
2019-04-04T12:03:05.285Z,985.62
2019-04-04T12:04:05.267Z,985.63
2019-04-04T12:05:05.270Z,985.63
2019-04-04T12:06:05.266Z,985.61
2019-04-04T12:07:05.267Z,985.64
2019-04-04T12:08:05.269Z,985.63
2019-04-04T12:09:05.281Z,985.60
2019-04-04T12:10:07.756Z,985.64
2019-04-04T12:11:05.301Z,985.63
2019-04-04T12:12:05.267Z,985.54
2019-04-04T12:13:05.268Z,985.54
2019-04-04T12:14:05.274Z,985.52
2019-04-04T12:15:05.278Z,985.57
2019-04-04T12:16:05.270Z,985.52
2019-04-04T12:17:05.275Z,985.55
2019-04-04T12:18:05.266Z,985.51
2019-04-04T12:19:05.267Z,985.57
2019-04-04T12:20:05.303Z,985.58
2019-04-04T12:21:05.278Z,985.60
2019-04-04T12:22:05.267Z,985.58
2019-04-04T12:23:05.269Z,985.58
2019-04-04T12:24:05.277Z,985.57
2019-04-04T12:25:05.297Z,985.55
2019-04-04T12:26:03.491Z,985.49
2019-04-04T12:27:05.327Z,985.54
2019-04-04T12:28:05.267Z,985.57
2019-04-04T12:29:05.278Z,985.55